Volk Field
KVOK : now visible

Airfield :











YOU CAN JOIN US ON...

 
LOGIN :

Register | Disclaimer

   EN    FR    IT 

 









Legend :    VFR   Marginal VFR   IFR   Intensive IFR   Very Intensive IFR
Visi :
Ceiling :
>= 8 km
>= 3000ft
5 to 8 km
1000 to 3000 ft
1500m to 5 km
500 to 1000 ft
800 to 1500m
200 to 500 ft
< 800m
< 200 ft
Symbols :   Thunderstorms  Fog  Heavy snow  Heavy precipitations  Wind > 20 kt






- Airport Elevation : 912 ft


KVOK - Volk Field

CURRENT METAR :
  • 270556Z AUTO 00000KT 10SM CLR 12/11 A2971 RMK AO2 SLP062 T01160108 10223 20109 402720051 58002

EXPIRED METARs :
  • 270456Z AUTO 00000KT 10SM CLR 12/11 A2971 RMK AO2 SLP062 T01230112
  • 270356Z AUTO 11004KT 8SM CLR 12/11 A2972 RMK AO2 SLP066 T01220114

TAF TAF KVOK
Valid from the 27 at 01:00 until the 28 at 07:00 UTC


270100Z 2701/2807 VRB06KT 9999 FEW190 QNH2972INS
BECMG 2708/2709 VRB06KT 9999 BCFG SKC QNH2973INS
BECMG 2714/2715 04006KT 9999 NSW FEW020 FEW200 QNH2983INS
BECMG 2801/2802 11006KT 9999 FEW015 QNH2994INS TX21/2721Z TN13/2712Z LAST NO AMDS AFT 2701 NEXT 2709
KZAU FIR / North America



MET'MAP, your aeronautical weather chart ! - Copyright ORBIFLY December 2007 - Disclaimer

ORBIFLY MET'MAP TEAM :

Programming & Development : Alexandra Zaïnal
Concept & original design : Baudouin d'Aumeries
Assistance for programming : Marc-Olivier Méhu
Technical & hardware support : Manuel Goepfert

Contact : metmap@orbifly.com




SOURCES & CREDITS :

   NOAA       Earth
Advisory